Time;durP1;ratioP1;P1;durP2;ratioP2;P2;SDS_P1;SDS_P2;PMS_P1;PMS_P2;Temp;Humidity;BMP_temperature;BMP_pressure;BME280_temperature;BME280_humidity;BME280_pressure;Samples;Min_cycle;Max_cycle;Signal;HPM_P1;HPM_P2
2022/11/16 00:01:32;;;;;;;2.83;2.40;;;10.40;99.90;;;;;;5024733;28;20076;-82
2022/11/16 00:03:59;;;;;;;3.88;1.48;;;10.40;99.90;;;;;;5038566;28;20084;-83
2022/11/16 00:06:27;;;;;;;3.97;2.42;;;10.40;99.90;;;;;;5033915;28;20060;-84
2022/11/16 00:11:43;;;;;;;5.75;2.30;;;10.50;99.90;;;;;;5019268;28;20041;-82
2022/11/16 00:14:09;;;;;;;3.33;1.90;;;10.50;99.90;;;;;;5036874;28;20095;-80
2022/11/16 00:16:35;;;;;;;3.72;2.55;;;10.50;99.90;;;;;;5035154;28;20076;-86
2022/11/16 00:19:04;;;;;;;2.83;1.88;;;10.50;99.90;;;;;;5045135;28;20045;-83
2022/11/16 00:21:31;;;;;;;4.22;2.45;;;10.50;99.90;;;;;;5033854;28;20052;-81
2022/11/16 00:23:57;;;;;;;3.65;2.55;;;10.50;99.90;;;;;;5030685;28;20077;-81
2022/11/16 00:26:23;;;;;;;5.00;2.47;;;10.50;99.90;;;;;;5035407;28;20505;-81
2022/11/16 00:28:52;;;;;;;4.88;2.40;;;10.50;99.90;;;;;;5050215;28;20057;-81
2022/11/16 00:31:19;;;;;;;4.03;2.35;;;10.50;99.90;;;;;;5039580;28;20044;-80
2022/11/16 00:33:45;;;;;;;2.75;2.42;;;10.50;99.90;;;;;;5024470;28;20187;-82
2022/11/16 00:36:12;;;;;;;1.75;1.38;;;10.50;99.90;;;;;;5033207;28;20127;-82
2022/11/16 00:38:38;;;;;;;4.40;2.33;;;10.50;99.90;;;;;;5019743;28;20146;-82
2022/11/16 00:41:04;;;;;;;3.60;2.53;;;10.50;99.90;;;;;;5016696;28;20037;-80
2022/11/16 00:43:30;;;;;;;3.75;2.08;;;10.50;99.90;;;;;;5042824;28;20370;-81
2022/11/16 00:45:56;;;;;;;2.60;2.10;;;10.50;99.90;;;;;;5039936;28;20060;-81
2022/11/16 00:48:22;;;;;;;4.75;2.80;;;10.50;99.90;;;;;;5026054;28;20057;-83
2022/11/16 00:50:47;;;;;;;5.30;3.08;;;10.50;99.90;;;;;;5029307;28;20132;-81
2022/11/16 00:53:16;;;;;;;5.35;2.80;;;10.50;99.90;;;;;;5044910;28;20052;-81
2022/11/16 00:55:44;;;;;;;4.47;2.35;;;10.50;99.90;;;;;;5037808;28;20136;-81
2022/11/16 00:58:10;;;;;;;6.05;2.97;;;10.50;99.90;;;;;;5039183;28;20056;-81
2022/11/16 01:00:36;;;;;;;4.35;2.35;;;10.50;99.90;;;;;;5017601;28;20050;-81
2022/11/16 01:03:03;;;;;;;3.17;2.08;;;10.60;99.90;;;;;;5038361;28;20073;-84
2022/11/16 01:05:29;;;;;;;3.50;2.42;;;10.50;99.90;;;;;;5033656;28;20105;-82
2022/11/16 01:07:56;;;;;;;6.65;2.92;;;10.60;99.90;;;;;;5032438;28;20129;-81
2022/11/16 01:10:23;;;;;;;5.97;2.70;;;10.60;99.90;;;;;;5018416;28;20045;-83
2022/11/16 01:12:50;;;;;;;11.73;3.67;;;10.60;99.90;;;;;;5035495;28;20044;-81
2022/11/16 01:15:18;;;;;;;5.28;3.33;;;10.60;99.90;;;;;;5030354;28;20044;-81
2022/11/16 01:17:44;;;;;;;5.30;2.75;;;10.60;99.90;;;;;;5033586;28;20455;-84
2022/11/16 01:20:14;;;;;;;5.53;2.45;;;10.70;99.90;;;;;;5028564;28;20049;-80
2022/11/16 01:22:41;;;;;;;5.60;3.38;;;10.60;99.90;;;;;;5033494;28;20045;-82
2022/11/16 01:25:08;;;;;;;5.28;3.03;;;10.60;99.90;;;;;;5037216;28;20099;-82
2022/11/16 01:27:33;;;;;;;4.25;2.72;;;10.70;99.90;;;;;;5033346;28;20057;-82
2022/11/16 01:29:59;;;;;;;6.85;2.53;;;10.60;99.90;;;;;;5033748;28;20049;-81
2022/11/16 01:32:25;;;;;;;5.88;2.47;;;10.60;99.90;;;;;;5020162;28;20077;-82
2022/11/16 01:34:50;;;;;;;4.18;2.08;;;10.70;99.90;;;;;;5017123;28;20056;-82
2022/11/16 01:37:17;;;;;;;4.93;2.67;;;10.70;99.90;;;;;;5034817;28;20504;-82
2022/11/16 01:39:43;;;;;;;5.45;3.00;;;10.70;99.90;;;;;;5037427;28;20056;-83
2022/11/16 01:42:20;;;;;;;4.20;2.17;;;10.70;99.90;;;;;;5034337;28;20030;-82
2022/11/16 01:44:46;;;;;;;5.60;2.63;;;10.70;99.90;;;;;;5032612;28;20443;-87
2022/11/16 01:47:14;;;;;;;9.05;3.15;;;10.70;99.90;;;;;;5014890;28;20124;-82
2022/11/16 01:49:47;;;;;;;6.22;2.78;;;10.70;99.90;;;;;;5032557;28;20477;-82
2022/11/16 01:52:17;;;;;;;6.30;2.53;;;10.70;99.90;;;;;;5038065;28;20041;-82
2022/11/16 01:54:45;;;;;;;8.40;2.95;;;10.70;99.90;;;;;;5038578;28;20049;-82
2022/11/16 01:57:19;;;;;;;6.10;3.10;;;10.70;99.90;;;;;;5041494;28;20060;-81
2022/11/16 01:59:46;;;;;;;5.32;2.75;;;10.70;99.90;;;;;;5043595;28;20057;-82
2022/11/16 02:02:12;;;;;;;4.93;3.15;;;10.70;99.90;;;;;;5036506;28;20046;-82
2022/11/16 02:04:37;;;;;;;5.18;2.42;;;10.70;99.90;;;;;;5041177;28;20426;-82
2022/11/16 02:07:31;;;;;;;7.30;3.05;;;10.70;99.90;;;;;;5040177;28;20040;-82
2022/11/16 02:10:14;;;;;;;6.22;2.40;;;10.70;99.90;;;;;;5037578;28;20144;-82
2022/11/16 02:12:49;;;;;;;5.18;3.15;;;10.70;99.90;;;;;;5040401;28;20500;-81
2022/11/16 02:15:29;;;;;;;3.30;1.98;;;10.70;99.90;;;;;;5020233;28;20061;-82
2022/11/16 02:18:42;;;;;;;2.60;2.38;;;10.80;99.90;;;;;;5038492;28;20087;-82
2022/11/16 02:21:29;;;;;;;2.97;2.00;;;10.70;99.90;;;;;;5018004;28;20042;-82
2022/11/16 02:24:12;;;;;;;3.78;2.75;;;10.70;99.90;;;;;;5007912;28;20050;-82
2022/11/16 02:27:02;;;;;;;7.00;2.38;;;10.80;99.90;;;;;;5032173;28;20609;-83
2022/11/16 02:29:44;;;;;;;2.75;1.65;;;10.80;99.90;;;;;;5025864;28;20545;-83
2022/11/16 02:32:26;;;;;;;6.18;1.98;;;10.80;99.90;;;;;;5040530;28;20508;-82
2022/11/16 02:35:02;;;;;;;4.10;2.25;;;10.70;99.90;;;;;;5038740;28;20567;-82
2022/11/16 02:37:33;;;;;;;2.92;2.17;;;10.80;99.90;;;;;;5037130;28;20130;-83
2022/11/16 02:40:02;;;;;;;2.63;1.63;;;10.80;99.90;;;;;;5036117;28;20116;-82
2022/11/16 02:42:36;;;;;;;5.50;2.63;;;10.70;99.90;;;;;;5038088;28;20045;-84
2022/11/16 02:45:05;;;;;;;9.25;2.60;;;10.80;99.90;;;;;;5037852;28;20519;-82
2022/11/16 02:47:33;;;;;;;2.67;1.85;;;10.80;99.90;;;;;;5037344;28;20773;-83
2022/11/16 02:50:09;;;;;;;6.00;2.25;;;10.80;99.90;;;;;;5040693;28;20389;-82
2022/11/16 02:52:36;;;;;;;4.30;2.38;;;10.80;99.90;;;;;;5043021;28;20056;-81
2022/11/16 02:55:02;;;;;;;3.30;2.25;;;10.80;99.90;;;;;;5041597;28;20049;-82
2022/11/16 02:57:57;;;;;;;4.32;2.53;;;10.80;99.90;;;;;;5039543;28;20483;-83
2022/11/16 03:00:26;;;;;;;3.90;2.40;;;10.80;99.90;;;;;;5038119;28;20044;-82
2022/11/16 03:03:08;;;;;;;4.13;2.58;;;10.80;99.90;;;;;;5035885;28;20045;-82
2022/11/16 03:05:37;;;;;;;3.22;2.08;;;10.80;99.90;;;;;;5038513;28;20068;-82
2022/11/16 03:08:10;;;;;;;2.25;1.55;;;10.80;99.90;;;;;;5038172;28;20120;-82
2022/11/16 03:13:26;;;;;;;5.03;3.08;;;10.80;99.90;;;;;;5035023;28;20124;-82
2022/11/16 03:15:54;;;;;;;8.70;2.67;;;10.80;99.90;;;;;;5035656;28;20046;-83
2022/11/16 03:18:22;;;;;;;3.95;2.72;;;10.80;99.90;;;;;;5039576;28;20041;-85
2022/11/16 03:20:55;;;;;;;3.05;2.00;;;10.80;99.90;;;;;;5033682;28;20087;-83
2022/11/16 03:23:23;;;;;;;3.42;2.38;;;10.80;99.90;;;;;;5037119;28;20060;-83
2022/11/16 03:25:51;;;;;;;3.83;2.03;;;10.80;99.90;;;;;;5040127;28;20064;-81
2022/11/16 03:28:28;;;;;;;4.65;2.30;;;10.70;99.90;;;;;;5034735;28;20476;-81
2022/11/16 03:30:59;;;;;;;4.05;3.33;;;10.80;99.90;;;;;;5035059;28;20053;-81
2022/11/16 03:33:35;;;;;;;2.67;2.10;;;10.70;99.90;;;;;;5041378;28;20053;-81
2022/11/16 03:36:11;;;;;;;3.72;2.53;;;10.70;99.90;;;;;;5040436;28;20120;-81
2022/11/16 03:38:40;;;;;;;6.18;2.60;;;10.70;99.90;;;;;;5032751;28;20091;-81
2022/11/16 03:41:08;;;;;;;4.40;2.85;;;10.70;99.90;;;;;;5036732;28;20064;-81
2022/11/16 03:43:36;;;;;;;4.25;2.33;;;10.70;99.90;;;;;;5037111;28;20056;-81
2022/11/16 03:46:03;;;;;;;3.35;2.30;;;10.80;99.90;;;;;;5034680;28;20056;-81
2022/11/16 03:48:37;;;;;;;6.40;2.90;;;10.80;99.90;;;;;;5033380;28;20050;-81
2022/11/16 03:51:04;;;;;;;3.08;2.20;;;10.80;99.90;;;;;;5034165;28;20091;-81
2022/11/16 03:53:29;;;;;;;3.53;2.38;;;10.80;99.90;;;;;;5025137;28;20068;-82
2022/11/16 03:55:55;;;;;;;7.30;2.88;;;10.80;99.90;;;;;;5039767;28;20053;-80
2022/11/16 03:58:21;;;;;;;5.88;3.10;;;10.80;99.90;;;;;;5034042;28;20124;-81
2022/11/16 04:00:47;;;;;;;4.68;2.45;;;10.80;99.90;;;;;;5022372;28;20041;-80
2022/11/16 04:03:12;;;;;;;3.88;2.90;;;10.80;99.90;;;;;;5031865;28;20053;-81
2022/11/16 04:25:18;;;;;;;4.97;2.42;;;10.80;99.90;;;;;;5039288;28;20102;-80
2022/11/16 04:37:47;;;;;;;6.55;3.00;;;10.80;99.90;;;;;;5026925;28;20132;-81
2022/11/16 04:38:55;;;;;;;3.78;2.08;;;10.70;99.90;;;;;;5040853;28;20053;-81
2022/11/16 04:44:05;;;;;;;4.65;2.45;;;10.70;99.90;;;;;;5043205;28;20156;-81
2022/11/16 04:49:15;;;;;;;4.35;2.55;;;10.80;99.90;;;;;;5034055;28;20045;-80
2022/11/16 04:51:41;;;;;;;5.18;2.85;;;10.70;99.90;;;;;;5030763;28;20048;-80
2022/11/16 04:54:06;;;;;;;4.45;2.67;;;10.70;99.90;;;;;;5022115;28;20495;-80
2022/11/16 04:56:32;;;;;;;4.75;2.50;;;10.80;99.90;;;;;;5037867;28;20520;-82
2022/11/16 04:58:58;;;;;;;4.93;2.58;;;10.80;99.90;;;;;;5041215;28;20040;-81
2022/11/16 05:02:06;;;;;;;5.45;2.58;;;10.80;99.90;;;;;;5021774;28;20655;-81
2022/11/16 05:04:09;;;;;;;4.28;2.25;;;10.70;99.90;;;;;;5037140;28;20045;-80
2022/11/16 05:06:35;;;;;;;6.45;2.92;;;10.70;99.90;;;;;;5036431;28;20046;-80
2022/11/16 05:09:01;;;;;;;4.57;2.67;;;10.70;99.90;;;;;;5034879;28;20052;-81
2022/11/16 05:11:27;;;;;;;3.45;2.65;;;10.70;99.90;;;;;;5036811;28;20443;-81
2022/11/16 05:13:53;;;;;;;5.55;3.42;;;10.70;99.90;;;;;;5040559;28;20538;-80
2022/11/16 05:16:18;;;;;;;5.10;3.22;;;10.70;99.90;;;;;;5017536;28;20160;-81
2022/11/16 05:20:59;;;;;;;6.25;3.17;;;10.70;99.90;;;;;;5029200;28;20273;-80
2022/11/16 05:21:29;;;;;;;2.78;2.05;;;10.70;99.90;;;;;;5030634;28;20080;-86
2022/11/16 05:26:39;;;;;;;4.03;3.05;;;10.70;99.90;;;;;;5036817;28;20049;-80
2022/11/16 05:29:05;;;;;;;5.43;3.03;;;10.70;99.90;;;;;;5037814;28;20045;-80
2022/11/16 05:31:30;;;;;;;5.57;2.45;;;10.70;99.90;;;;;;5046915;28;20049;-81
2022/11/16 05:33:56;;;;;;;4.95;3.05;;;10.70;99.90;;;;;;5042039;28;20127;-82
2022/11/16 05:36:22;;;;;;;5.03;3.15;;;10.70;99.90;;;;;;5038933;28;20468;-82
2022/11/16 05:38:47;;;;;;;6.82;3.53;;;10.70;99.90;;;;;;5029501;28;20508;-82
2022/11/16 05:41:13;;;;;;;4.07;2.80;;;10.70;99.90;;;;;;5042800;28;20057;-83
2022/11/16 05:43:39;;;;;;;8.57;3.15;;;10.70;99.90;;;;;;5021159;28;20041;-82
2022/11/16 05:46:04;;;;;;;5.05;2.72;;;10.80;99.90;;;;;;5045954;28;20044;-84
2022/11/16 05:48:30;;;;;;;4.97;3.45;;;10.70;99.90;;;;;;5040833;28;20081;-83
2022/11/16 05:50:59;;;;;;;5.20;2.85;;;10.70;99.90;;;;;;5037138;28;20045;-82
2022/11/16 05:53:25;;;;;;;6.05;3.47;;;10.70;99.90;;;;;;5020322;28;20388;-84
2022/11/16 05:55:51;;;;;;;3.85;2.97;;;10.70;99.90;;;;;;5040823;28;20049;-82
2022/11/16 05:58:16;;;;;;;6.28;3.00;;;10.70;99.90;;;;;;5034840;28;20044;-83
2022/11/16 06:00:44;;;;;;;7.30;3.80;;;10.70;99.90;;;;;;5028439;28;20037;-84
2022/11/16 06:03:10;;;;;;;6.43;2.40;;;10.70;99.90;;;;;;5021721;28;20095;-83
2022/11/16 06:05:35;;;;;;;10.95;3.88;;;10.80;99.90;;;;;;5035368;28;20041;-83
2022/11/16 06:08:01;;;;;;;4.75;3.25;;;10.80;99.90;;;;;;5042760;28;20040;-82
2022/11/16 06:10:27;;;;;;;8.00;3.25;;;10.80;99.90;;;;;;5045745;28;20045;-85
2022/11/16 06:12:52;;;;;;;3.80;2.20;;;10.80;99.90;;;;;;5043090;28;20569;-82
2022/11/16 06:15:18;;;;;;;7.28;3.67;;;10.80;99.90;;;;;;5029148;28;20049;-83
2022/11/16 06:17:44;;;;;;;7.78;3.20;;;10.80;99.90;;;;;;5040664;28;20044;-84
2022/11/16 06:20:10;;;;;;;4.88;3.13;;;10.80;99.90;;;;;;5036036;28;20041;-82
2022/11/16 06:22:35;;;;;;;6.03;3.42;;;10.80;99.90;;;;;;5038367;28;20506;-83
2022/11/16 06:25:01;;;;;;;9.10;3.35;;;10.80;99.90;;;;;;5040613;28;20052;-82
2022/11/16 06:27:27;;;;;;;13.23;6.97;;;10.80;99.90;;;;;;5043590;28;20051;-82
2022/11/16 06:29:52;;;;;;;3.55;2.50;;;10.80;99.90;;;;;;5039670;28;20049;-83
2022/11/16 06:32:18;;;;;;;83.50;36.42;;;10.80;99.90;;;;;;5039465;28;20041;-82
2022/11/16 06:34:44;;;;;;;35.83;15.27;;;10.80;99.90;;;;;;5036639;28;20084;-82
2022/11/16 06:37:10;;;;;;;6.35;3.63;;;10.70;99.90;;;;;;5044848;28;20103;-83
2022/11/16 06:39:35;;;;;;;3.95;2.70;;;10.70;99.90;;;;;;5042624;28;20373;-82
2022/11/16 06:42:01;;;;;;;3.78;2.53;;;10.70;99.90;;;;;;5033175;28;20427;-82
2022/11/16 06:44:27;;;;;;;4.97;2.95;;;10.70;99.90;;;;;;5039289;28;20132;-82
2022/11/16 06:46:52;;;;;;;11.48;3.60;;;10.70;99.90;;;;;;5021421;28;20045;-82
2022/11/16 06:49:18;;;;;;;6.55;2.70;;;10.70;99.90;;;;;;5040982;28;20401;-83
2022/11/16 06:51:44;;;;;;;3.38;2.63;;;10.70;99.90;;;;;;5038564;28;20041;-83
2022/11/16 06:54:09;;;;;;;4.18;2.17;;;10.60;99.90;;;;;;5037578;28;20492;-81
2022/11/16 06:56:35;;;;;;;5.38;2.80;;;10.60;99.90;;;;;;5035964;28;20060;-81
2022/11/16 06:59:01;;;;;;;4.43;2.65;;;10.60;99.90;;;;;;5027798;28;20041;-78
2022/11/16 07:01:26;;;;;;;6.85;3.28;;;10.70;99.90;;;;;;5056637;28;20044;-79
2022/11/16 07:03:52;;;;;;;4.75;2.55;;;10.70;99.90;;;;;;5038028;28;20049;-80
2022/11/16 07:06:18;;;;;;;4.18;2.30;;;10.60;99.90;;;;;;5041929;28;20037;-80
2022/11/16 07:08:43;;;;;;;4.32;2.28;;;10.60;99.90;;;;;;5049316;28;20045;-80
2022/11/16 07:11:10;;;;;;;7.05;2.97;;;10.60;99.90;;;;;;5047666;28;20433;-80
2022/11/16 07:13:37;;;;;;;7.13;3.05;;;10.60;99.90;;;;;;5045260;28;20419;-84
2022/11/16 07:16:07;;;;;;;6.40;3.00;;;10.50;99.90;;;;;;5022089;28;20136;-80
2022/11/16 07:18:34;;;;;;;3.55;2.03;;;10.50;99.90;;;;;;5036182;28;20040;-80
2022/11/16 07:21:05;;;;;;;7.88;2.60;;;10.50;99.90;;;;;;5025393;28;20459;-80
2022/11/16 07:23:33;;;;;;;5.93;3.07;;;10.50;99.90;;;;;;5032949;28;20045;-80
2022/11/16 07:26:00;;;;;;;3.65;2.85;;;10.50;99.90;;;;;;5047954;28;20382;-80
2022/11/16 07:28:28;;;;;;;4.00;2.53;;;10.50;99.90;;;;;;5019504;28;20444;-81
2022/11/16 07:30:55;;;;;;;2.25;1.95;;;10.50;99.90;;;;;;5025263;28;20037;-80
2022/11/16 07:33:20;;;;;;;3.85;2.17;;;10.50;99.90;;;;;;5035028;28;20052;-81
2022/11/16 07:35:46;;;;;;;4.47;2.30;;;10.50;99.90;;;;;;5041857;28;20049;-80
2022/11/16 07:38:12;;;;;;;6.45;2.60;;;10.50;99.90;;;;;;5043896;28;20431;-81
2022/11/16 07:40:37;;;;;;;2.92;2.22;;;10.40;99.90;;;;;;5035647;28;20045;-80
2022/11/16 07:43:03;;;;;;;4.93;2.15;;;10.40;99.90;;;;;;5035872;28;20053;-81
2022/11/16 07:45:29;;;;;;;2.80;2.45;;;10.40;99.90;;;;;;5051431;28;20045;-80
2022/11/16 07:47:54;;;;;;;2.60;2.05;;;10.40;99.90;;;;;;5032349;28;20100;-79
2022/11/16 07:50:20;;;;;;;4.03;1.65;;;10.40;99.90;;;;;;5038106;28;20045;-80
2022/11/16 07:52:46;;;;;;;3.08;2.05;;;10.40;99.90;;;;;;5037362;28;20060;-80
2022/11/16 07:55:12;;;;;;;2.78;1.95;;;10.40;99.90;;;;;;5043477;28;20089;-79
2022/11/16 07:57:38;;;;;;;3.33;1.67;;;10.40;99.90;;;;;;5031579;28;20049;-79
2022/11/16 08:00:05;;;;;;;3.42;1.75;;;10.40;99.90;;;;;;5039620;28;20053;-79
2022/11/16 08:02:30;;;;;;;3.65;2.10;;;10.50;99.90;;;;;;5040812;28;20036;-79
2022/11/16 08:04:56;;;;;;;3.45;1.58;;;10.50;99.90;;;;;;5037169;28;20053;-79
2022/11/16 08:07:22;;;;;;;1.95;1.15;;;10.40;99.90;;;;;;5033217;28;20126;-80
2022/11/16 08:09:48;;;;;;;4.22;2.45;;;10.50;99.90;;;;;;5022088;28;20369;-80
2022/11/16 08:12:15;;;;;;;2.33;1.42;;;10.40;99.90;;;;;;5041951;28;20110;-79
2022/11/16 08:14:41;;;;;;;3.38;2.08;;;10.40;99.90;;;;;;5044121;28;20135;-81
2022/11/16 08:17:07;;;;;;;1.85;1.23;;;10.50;99.90;;;;;;5037686;28;20174;-82
2022/11/16 08:19:33;;;;;;;3.08;1.70;;;10.40;99.90;;;;;;5035089;28;20073;-82
2022/11/16 08:21:59;;;;;;;1.80;1.02;;;10.50;99.90;;;;;;5040569;28;20053;-82
2022/11/16 08:24:24;;;;;;;2.38;1.58;;;10.50;99.90;;;;;;5046334;28;20053;-83
2022/11/16 08:26:50;;;;;;;24.88;2.33;;;10.50;99.90;;;;;;5047675;28;20049;-81
2022/11/16 08:29:16;;;;;;;3.03;2.55;;;10.50;99.90;;;;;;5042501;28;20495;-81
2022/11/16 08:31:45;;;;;;;2.78;1.98;;;10.50;99.90;;;;;;5038620;28;20132;-84
2022/11/16 08:34:11;;;;;;;3.88;2.17;;;10.50;99.90;;;;;;5041497;28;20526;-81
2022/11/16 08:36:37;;;;;;;3.70;2.25;;;10.60;99.90;;;;;;5047453;28;20037;-82
2022/11/16 08:39:02;;;;;;;4.53;2.58;;;10.60;99.90;;;;;;5049675;28;20080;-81
2022/11/16 08:41:28;;;;;;;6.68;2.28;;;10.60;99.90;;;;;;5055165;28;20053;-82
2022/11/16 08:43:54;;;;;;;3.80;2.47;;;10.70;99.90;;;;;;5052235;28;20047;-82
2022/11/16 08:46:20;;;;;;;6.40;2.45;;;10.70;99.90;;;;;;5042506;28;20045;-83
2022/11/16 08:48:46;;;;;;;4.72;3.47;;;10.80;99.90;;;;;;5038774;28;20037;-82
2022/11/16 08:51:14;;;;;;;4.68;2.78;;;10.90;99.90;;;;;;5047246;28;20358;-81
2022/11/16 08:53:40;;;;;;;5.03;2.92;;;11.00;99.90;;;;;;5044481;28;20084;-81
2022/11/16 08:56:08;;;;;;;5.50;3.20;;;11.00;99.90;;;;;;5035804;28;20095;-82
2022/11/16 08:58:37;;;;;;;5.30;3.10;;;11.10;99.90;;;;;;5032883;28;20042;-82
2022/11/16 09:01:11;;;;;;;3.85;2.58;;;11.20;99.90;;;;;;5037368;28;20033;-82
2022/11/16 09:03:37;;;;;;;4.38;2.50;;;11.20;99.90;;;;;;5036566;28;20048;-81
2022/11/16 09:06:04;;;;;;;6.15;2.95;;;11.20;99.90;;;;;;5042337;28;20056;-81
2022/11/16 09:08:30;;;;;;;5.80;3.47;;;11.20;99.90;;;;;;5041102;28;20046;-82
2022/11/16 09:10:56;;;;;;;6.50;3.63;;;11.20;99.90;;;;;;5047130;28;20041;-82
2022/11/16 09:13:21;;;;;;;8.35;3.70;;;11.30;99.90;;;;;;5048463;28;20106;-81
2022/11/16 09:15:47;;;;;;;3.97;2.83;;;11.30;99.90;;;;;;5050724;28;20087;-82
2022/11/16 09:18:12;;;;;;;10.77;3.65;;;11.30;99.90;;;;;;5051006;28;20129;-82
2022/11/16 09:20:44;;;;;;;9.88;3.70;;;11.40;99.90;;;;;;5046709;28;20427;-81
2022/11/16 09:23:09;;;;;;;8.83;3.67;;;11.40;99.90;;;;;;5052102;28;20114;-82
2022/11/16 09:25:35;;;;;;;5.05;3.40;;;11.30;99.90;;;;;;5049840;28;20060;-82
2022/11/16 09:28:01;;;;;;;6.40;3.47;;;11.40;99.90;;;;;;5071131;28;20048;-82
2022/11/16 09:30:26;;;;;;;8.57;3.33;;;11.40;99.90;;;;;;5063135;28;20129;-82
2022/11/16 09:32:52;;;;;;;6.18;3.10;;;11.50;99.90;;;;;;5039955;28;20072;-83
2022/11/16 09:35:19;;;;;;;11.65;4.15;;;11.50;99.90;;;;;;5015644;28;20483;-82
2022/11/16 09:37:45;;;;;;;8.10;3.70;;;11.50;99.90;;;;;;5053695;28;20053;-81
2022/11/16 09:40:11;;;;;;;9.55;4.28;;;11.50;99.90;;;;;;5037443;28;20041;-82
2022/11/16 09:42:53;;;;;;;5.05;2.78;;;11.60;99.90;;;;;;5042221;28;20044;-82
2022/11/16 09:45:35;;;;;;;7.10;3.55;;;11.60;99.90;;;;;;5036329;28;20052;-82
2022/11/16 09:48:04;;;;;;;12.10;3.22;;;11.70;99.90;;;;;;5041965;28;20511;-82
2022/11/16 09:50:48;;;;;;;9.45;4.05;;;11.70;99.90;;;;;;5023112;28;20488;-80
2022/11/16 09:53:20;;;;;;;5.10;3.15;;;11.70;99.90;;;;;;5041695;28;20067;-81
2022/11/16 09:55:52;;;;;;;7.25;2.95;;;11.70;99.90;;;;;;5041835;28;20064;-81
2022/11/16 09:58:28;;;;;;;6.95;3.25;;;11.70;99.90;;;;;;5040950;28;20056;-81
2022/11/16 10:01:04;;;;;;;4.55;2.78;;;11.70;99.90;;;;;;5040906;28;20037;-81
2022/11/16 10:03:34;;;;;;;6.05;3.42;;;11.70;99.90;;;;;;5038623;28;20053;-82
2022/11/16 10:06:04;;;;;;;7.18;3.78;;;11.70;99.90;;;;;;5039820;28;20044;-80
2022/11/16 10:08:46;;;;;;;10.30;2.97;;;11.70;99.90;;;;;;5041870;28;20041;-82
2022/11/16 10:11:39;;;;;;;4.30;2.63;;;11.70;99.90;;;;;;5043806;28;20127;-81
2022/11/16 10:14:37;;;;;;;6.85;2.10;;;11.90;99.90;;;;;;5040259;28;20064;-81
2022/11/16 10:17:18;;;;;;;4.40;1.80;;;12.00;99.90;;;;;;5044642;28;20136;-82
2022/11/16 10:19:58;;;;;;;3.60;2.00;;;12.00;99.90;;;;;;5043849;28;20081;-82
2022/11/16 10:22:35;;;;;;;5.40;2.15;;;12.00;99.90;;;;;;5041181;28;20408;-82
2022/11/16 10:25:22;;;;;;;4.28;2.25;;;11.90;99.90;;;;;;5040927;28;20132;-83
2022/11/16 10:27:51;;;;;;;2.30;1.63;;;11.80;99.90;;;;;;5047695;28;20071;-82
2022/11/16 10:30:18;;;;;;;5.82;2.22;;;11.90;99.90;;;;;;5037143;28;20374;-81
2022/11/16 10:33:15;;;;;;;3.78;1.50;;;11.90;99.90;;;;;;5045469;28;20045;-81
2022/11/16 10:35:52;;;;;;;2.17;1.67;;;11.90;99.90;;;;;;5037549;28;20056;-82
2022/11/16 10:38:24;;;;;;;4.65;1.98;;;11.90;99.90;;;;;;5041909;28;20052;-82
2022/11/16 10:41:00;;;;;;;3.20;1.35;;;12.00;99.90;;;;;;5023410;28;20149;-82
2022/11/16 10:43:30;;;;;;;4.32;1.35;;;12.00;99.90;;;;;;5041190;28;20048;-83
2022/11/16 10:46:01;;;;;;;4.28;1.73;;;12.00;99.90;;;;;;5042187;28;20049;-85
2022/11/16 10:48:41;;;;;;;2.03;1.00;;;11.90;99.90;;;;;;5023514;28;20409;-81
2022/11/16 10:51:08;;;;;;;8.63;1.27;;;11.80;99.90;;;;;;5042161;28;20492;-81
2022/11/16 10:53:38;;;;;;;3.85;1.00;;;11.80;99.90;;;;;;5044677;28;20080;-82
2022/11/16 10:56:12;;;;;;;1.55;1.02;;;11.70;99.90;;;;;;5042649;28;20061;-85
2022/11/16 10:58:52;;;;;;;4.72;1.50;;;11.70;99.90;;;;;;5045717;28;20048;-82
2022/11/16 11:01:38;;;;;;;4.13;1.23;;;11.70;99.90;;;;;;5048839;28;20415;-82
2022/11/16 11:04:15;;;;;;;1.52;0.88;;;11.70;99.90;;;;;;5054767;28;20048;-82
2022/11/16 11:06:42;;;;;;;4.07;1.50;;;11.70;99.90;;;;;;5054817;28;20044;-82
2022/11/16 11:09:25;;;;;;;3.35;1.23;;;11.70;99.90;;;;;;5050790;28;20045;-81
2022/11/16 11:14:59;;;;;;;5.15;0.80;;;11.80;99.90;;;;;;5039956;28;20068;-83
2022/11/16 11:17:25;;;;;;;4.65;1.40;;;11.80;99.90;;;;;;5043218;28;20512;-84
2022/11/16 11:20:14;;;;;;;3.80;1.13;;;11.80;99.90;;;;;;5020864;28;20072;-83
2022/11/16 11:22:53;;;;;;;7.68;1.38;;;11.80;99.90;;;;;;5040689;28;20072;-82
2022/11/16 11:25:22;;;;;;;2.95;1.17;;;11.80;99.90;;;;;;5037322;28;20514;-82
2022/11/16 11:27:49;;;;;;;9.48;1.13;;;11.80;99.90;;;;;;5021061;28;20421;-84
2022/11/16 11:30:19;;;;;;;6.18;1.25;;;11.80;99.90;;;;;;5033599;28;20045;-80
2022/11/16 11:32:46;;;;;;;5.28;1.33;;;11.80;99.90;;;;;;5023720;28;20124;-84
2022/11/16 11:35:29;;;;;;;4.00;1.50;;;11.90;99.90;;;;;;5041093;28;20496;-81
2022/11/16 11:37:59;;;;;;;5.70;1.25;;;11.80;99.90;;;;;;5039529;28;20411;-82
2022/11/16 11:40:29;;;;;;;9.60;1.52;;;11.70;99.90;;;;;;5038640;28;20073;-82
2022/11/16 11:43:03;;;;;;;8.90;1.70;;;11.70;99.90;;;;;;5035002;28;20080;-81
2022/11/16 11:45:47;;;;;;;7.30;1.50;;;11.70;99.90;;;;;;5036783;28;20045;-82
2022/11/16 11:48:39;;;;;;;2.42;1.42;;;11.70;99.90;;;;;;5042654;28;20469;-83
2022/11/16 11:51:08;;;;;;;;;;;11.80;99.90;;;;;;5037205;28;20045;-82
2022/11/16 11:53:58;;;;;;;3.92;1.27;;;11.80;99.90;;;;;;5025197;28;19928;-83
2022/11/16 11:56:26;;;;;;;8.02;1.38;;;11.90;99.90;;;;;;5020300;28;20093;-81
2022/11/16 11:58:53;;;;;;;5.47;1.50;;;12.00;99.90;;;;;;5038540;28;20503;-81
2022/11/16 12:01:34;;;;;;;9.50;1.20;;;12.00;99.90;;;;;;5011243;28;20044;-81
2022/11/16 12:04:35;;;;;;;6.25;1.15;;;12.00;99.90;;;;;;5048919;28;20037;-81
2022/11/16 12:07:33;;;;;;;2.08;1.35;;;12.10;99.90;;;;;;5036072;28;20435;-81
2022/11/16 12:10:14;;;;;;;2.22;0.90;;;12.10;99.90;;;;;;5046554;28;20099;-81
2022/11/16 12:13:02;;;;;;;5.68;1.20;;;12.20;99.90;;;;;;5039014;28;20037;-82
2022/11/16 12:15:56;;;;;;;8.60;1.75;;;12.10;99.90;;;;;;5020856;28;20320;-84
2022/11/16 12:18:55;;;;;;;2.83;1.15;;;12.10;99.90;;;;;;5037451;28;20044;-82
2022/11/16 12:21:34;;;;;;;9.13;1.02;;;12.10;99.90;;;;;;5035725;28;20052;-80
2022/11/16 12:24:06;;;;;;;4.63;0.73;;;12.20;99.90;;;;;;5042114;28;20060;-85
2022/11/16 12:26:51;;;;;;;1.17;0.77;;;12.30;99.90;;;;;;5034889;28;20045;-82
2022/11/16 12:29:31;;;;;;;2.00;1.27;;;12.40;99.90;;;;;;5037069;28;20053;-81
2022/11/16 12:32:21;;;;;;;2.70;1.48;;;12.50;99.90;;;;;;5030080;28;20049;-80
2022/11/16 12:35:11;;;;;;;12.05;1.33;;;12.50;99.90;;;;;;5055830;28;20059;-82
2022/11/16 12:37:48;;;;;;;4.22;1.38;;;12.50;99.90;;;;;;5051784;28;20099;-81
2022/11/16 12:40:46;;;;;;;;;;;;;;;;;;;;;
2022/11/16 12:43:44;;;;;;;6.03;0.97;;;12.30;99.90;;;;;;5039286;28;20136;-81
2022/11/16 12:46:36;;;;;;;7.93;1.17;;;12.20;99.90;;;;;;5034899;28;20045;-81
2022/11/16 12:49:21;;;;;;;7.90;1.02;;;12.10;99.90;;;;;;5045262;28;20060;-81
2022/11/16 12:52:19;;;;;;;9.57;1.67;;;12.00;99.90;;;;;;5032929;28;20167;-81
2022/11/16 12:55:00;;;;;;;8.52;0.85;;;12.00;99.90;;;;;;5034492;28;20053;-81
2022/11/16 12:57:32;;;;;;;3.05;1.13;;;12.00;99.90;;;;;;5032165;28;20107;-80
2022/11/16 13:00:07;;;;;;;0.57;0.57;;;11.90;99.90;;;;;;5037934;28;20053;-79
2022/11/16 13:02:57;;;;;;;1.83;1.45;;;11.90;99.90;;;;;;5038297;28;20799;-81
2022/11/16 13:05:41;;;;;;;3.88;0.98;;;12.00;99.90;;;;;;5038896;28;20434;-80
2022/11/16 13:08:30;;;;;;;6.75;1.35;;;12.10;99.90;;;;;;5041814;28;20042;-80
2022/11/16 13:11:12;;;;;;;3.30;0.70;;;12.20;99.90;;;;;;5036181;28;20384;-83
2022/11/16 13:13:41;;;;;;;9.02;1.40;;;12.20;99.90;;;;;;5012501;28;20050;-81
2022/11/16 13:16:08;;;;;;;4.38;0.80;;;12.20;99.90;;;;;;5033759;28;20057;-81
2022/11/16 13:18:40;;;;;;;10.85;1.23;;;12.30;99.90;;;;;;5035641;28;20037;-84
2022/11/16 13:21:30;;;;;;;2.60;1.02;;;12.30;99.90;;;;;;5034006;28;20132;-80
2022/11/16 13:24:05;;;;;;;2.75;0.80;;;12.40;99.90;;;;;;5036925;28;20538;-82
2022/11/16 13:26:55;;;;;;;2.45;0.75;;;12.50;99.90;;;;;;5042415;28;20044;-81
2022/11/16 13:29:33;;;;;;;5.90;0.70;;;12.50;99.90;;;;;;5036384;28;20064;-81
2022/11/16 13:32:13;;;;;;;2.00;0.40;;;12.50;99.90;;;;;;5025837;28;20048;-81
2022/11/16 13:34:42;;;;;;;1.20;0.75;;;12.50;99.90;;;;;;5030605;28;20057;-81
2022/11/16 13:37:36;;;;;;;6.65;0.85;;;12.40;99.90;;;;;;5042902;28;20518;-81
2022/11/16 13:40:03;;;;;;;2.42;0.45;;;12.40;99.90;;;;;;5030444;28;20119;-81
2022/11/16 13:42:37;;;;;;;6.43;1.17;;;12.40;99.90;;;;;;5050098;28;20084;-80
2022/11/16 13:45:13;;;;;;;1.60;0.38;;;12.30;99.90;;;;;;5053055;28;20057;-81
2022/11/16 13:47:38;;;;;;;3.75;0.90;;;12.30;99.90;;;;;;5044798;28;20090;-81
2022/11/16 13:50:17;;;;;;;1.92;0.88;;;12.20;99.90;;;;;;5014228;28;20044;-81
2022/11/16 13:52:56;;;;;;;5.93;0.85;;;12.20;99.90;;;;;;5044022;28;20060;-82
2022/11/16 13:55:40;;;;;;;6.25;1.25;;;12.10;99.90;;;;;;5039796;28;20408;-82